Terminal Aerodrome Forecast
Issued by NWS

Home | Current Version | Previous Version | Text Only | Print | Product List | Glossary On
Versions: 1 2 3 4 5 6 7 8 9 10 11 12 13 14 15 16 17 18 19 20 21 22 23 24 25 26 27 28 29 30 31 32 33 34 35 36 37 38 39 40 41 42 43 44 45 46 47 48 49 50
000
FTUS43 KMKX 280614 AAA
TAFUES
TAF AMD
KUES 280614Z 2806/2906 25011KT P6SM SCT025
      TEMPO 2806/2808 BKN027
     FM280800 24007KT P6SM SCT030
     FM281200 VRB03KT P6SM SCT110
     FM281900 17006KT P6SM BKN045
     FM282100 10006KT P6SM VCSH BKN025 OVC040
     FM290000 05006KT P6SM VCSH BKN025 OVC030
     FM290200 03006KT P6SM VCSH OVC015=

USA.gov is the U.S. government's official web portal to all federal, state and local government web resources and services.